sensor_id;sensor_type;location;lat;lon;timestamp;P1;durP1;ratioP1;P2;durP2;ratioP2
20865;SDS011;10593;48.398;10.698;2023-04-09T00:02:20;6.20;;;5.70;;
20865;SDS011;10593;48.398;10.698;2023-04-09T00:04:46;5.73;;;5.27;;
20865;SDS011;10593;48.398;10.698;2023-04-09T00:07:11;5.30;;;4.90;;
20865;SDS011;10593;48.398;10.698;2023-04-09T00:09:37;5.90;;;5.40;;
20865;SDS011;10593;48.398;10.698;2023-04-09T00:12:03;6.33;;;5.73;;
20865;SDS011;10593;48.398;10.698;2023-04-09T00:14:29;5.77;;;5.33;;
20865;SDS011;10593;48.398;10.698;2023-04-09T00:16:54;5.93;;;5.43;;
20865;SDS011;10593;48.398;10.698;2023-04-09T00:19:20;5.57;;;5.03;;
20865;SDS011;10593;48.398;10.698;2023-04-09T00:21:46;5.33;;;4.90;;
20865;SDS011;10593;48.398;10.698;2023-04-09T00:24:12;5.80;;;5.40;;
20865;SDS011;10593;48.398;10.698;2023-04-09T00:26:38;5.33;;;4.93;;
20865;SDS011;10593;48.398;10.698;2023-04-09T00:29:04;5.53;;;5.03;;
20865;SDS011;10593;48.398;10.698;2023-04-09T00:31:30;5.40;;;5.00;;
20865;SDS011;10593;48.398;10.698;2023-04-09T00:33:56;5.30;;;4.90;;
20865;SDS011;10593;48.398;10.698;2023-04-09T00:36:22;5.43;;;5.03;;
20865;SDS011;10593;48.398;10.698;2023-04-09T00:38:48;4.97;;;4.67;;
20865;SDS011;10593;48.398;10.698;2023-04-09T00:41:15;6.00;;;5.57;;
20865;SDS011;10593;48.398;10.698;2023-04-09T00:43:42;5.57;;;5.17;;
20865;SDS011;10593;48.398;10.698;2023-04-09T00:46:07;5.83;;;5.33;;
20865;SDS011;10593;48.398;10.698;2023-04-09T00:48:33;5.63;;;5.17;;
20865;SDS011;10593;48.398;10.698;2023-04-09T00:50:58;6.10;;;5.60;;
20865;SDS011;10593;48.398;10.698;2023-04-09T00:53:24;6.07;;;5.57;;
20865;SDS011;10593;48.398;10.698;2023-04-09T00:55:51;6.47;;;5.90;;
20865;SDS011;10593;48.398;10.698;2023-04-09T00:58:17;6.10;;;5.60;;
20865;SDS011;10593;48.398;10.698;2023-04-09T01:00:43;6.73;;;6.17;;
20865;SDS011;10593;48.398;10.698;2023-04-09T01:03:08;6.33;;;5.83;;
20865;SDS011;10593;48.398;10.698;2023-04-09T01:05:55;6.63;;;6.03;;
20865;SDS011;10593;48.398;10.698;2023-04-09T01:15:02;6.00;;;5.50;;
20865;SDS011;10593;48.398;10.698;2023-04-09T01:20:09;6.60;;;6.10;;
20865;SDS011;10593;48.398;10.698;2023-04-09T01:25:44;6.33;;;5.83;;
20865;SDS011;10593;48.398;10.698;2023-04-09T01:28:31;5.67;;;5.17;;
20865;SDS011;10593;48.398;10.698;2023-04-09T01:31:07;6.07;;;5.57;;
20865;SDS011;10593;48.398;10.698;2023-04-09T01:33:37;6.00;;;5.50;;
20865;SDS011;10593;48.398;10.698;2023-04-09T01:36:06;5.93;;;5.50;;
20865;SDS011;10593;48.398;10.698;2023-04-09T01:38:34;5.97;;;5.57;;
20865;SDS011;10593;48.398;10.698;2023-04-09T01:41:04;6.07;;;5.60;;
20865;SDS011;10593;48.398;10.698;2023-04-09T01:43:32;5.90;;;5.40;;
20865;SDS011;10593;48.398;10.698;2023-04-09T01:46:00;5.93;;;5.43;;
20865;SDS011;10593;48.398;10.698;2023-04-09T01:48:28;5.77;;;5.37;;
20865;SDS011;10593;48.398;10.698;2023-04-09T01:50:55;5.77;;;5.30;;
20865;SDS011;10593;48.398;10.698;2023-04-09T01:53:23;6.57;;;6.07;;
20865;SDS011;10593;48.398;10.698;2023-04-09T01:55:52;5.67;;;5.27;;
20865;SDS011;10593;48.398;10.698;2023-04-09T01:58:24;5.07;;;4.67;;
20865;SDS011;10593;48.398;10.698;2023-04-09T02:00:51;5.57;;;5.17;;
20865;SDS011;10593;48.398;10.698;2023-04-09T02:03:25;5.60;;;5.10;;
20865;SDS011;10593;48.398;10.698;2023-04-09T02:06:09;5.77;;;5.27;;
20865;SDS011;10593;48.398;10.698;2023-04-09T02:08:55;5.30;;;4.80;;
20865;SDS011;10593;48.398;10.698;2023-04-09T02:11:25;5.57;;;5.17;;
20865;SDS011;10593;48.398;10.698;2023-04-09T02:13:56;5.13;;;4.73;;
20865;SDS011;10593;48.398;10.698;2023-04-09T02:16:22;5.57;;;5.17;;
20865;SDS011;10593;48.398;10.698;2023-04-09T02:18:54;6.03;;;5.53;;
20865;SDS011;10593;48.398;10.698;2023-04-09T02:21:26;6.17;;;5.67;;
20865;SDS011;10593;48.398;10.698;2023-04-09T02:24:03;5.37;;;4.97;;
20865;SDS011;10593;48.398;10.698;2023-04-09T02:26:29;5.90;;;5.40;;
20865;SDS011;10593;48.398;10.698;2023-04-09T02:28:54;5.63;;;5.20;;
20865;SDS011;10593;48.398;10.698;2023-04-09T02:31:20;6.20;;;5.70;;
20865;SDS011;10593;48.398;10.698;2023-04-09T02:33:46;5.60;;;5.20;;
20865;SDS011;10593;48.398;10.698;2023-04-09T02:36:11;6.43;;;5.83;;
20865;SDS011;10593;48.398;10.698;2023-04-09T02:38:41;6.27;;;5.77;;
20865;SDS011;10593;48.398;10.698;2023-04-09T02:41:07;6.20;;;5.70;;
20865;SDS011;10593;48.398;10.698;2023-04-09T02:43:33;5.80;;;5.40;;
20865;SDS011;10593;48.398;10.698;2023-04-09T02:45:59;6.27;;;5.77;;
20865;SDS011;10593;48.398;10.698;2023-04-09T02:48:25;5.93;;;5.43;;
20865;SDS011;10593;48.398;10.698;2023-04-09T02:50:50;6.00;;;5.50;;
20865;SDS011;10593;48.398;10.698;2023-04-09T02:53:16;5.70;;;5.20;;
20865;SDS011;10593;48.398;10.698;2023-04-09T02:55:42;5.77;;;5.27;;
20865;SDS011;10593;48.398;10.698;2023-04-09T02:58:07;5.70;;;5.20;;
20865;SDS011;10593;48.398;10.698;2023-04-09T03:00:33;6.07;;;5.57;;
20865;SDS011;10593;48.398;10.698;2023-04-09T03:02:59;6.33;;;5.47;;
20865;SDS011;10593;48.398;10.698;2023-04-09T03:05:24;5.43;;;5.03;;
20865;SDS011;10593;48.398;10.698;2023-04-09T03:07:50;5.70;;;5.30;;
20865;SDS011;10593;48.398;10.698;2023-04-09T03:10:17;5.27;;;4.87;;
20865;SDS011;10593;48.398;10.698;2023-04-09T03:12:43;5.97;;;5.47;;
20865;SDS011;10593;48.398;10.698;2023-04-09T03:15:09;5.57;;;5.17;;
20865;SDS011;10593;48.398;10.698;2023-04-09T03:17:35;5.73;;;5.23;;
20865;SDS011;10593;48.398;10.698;2023-04-09T03:20:01;6.23;;;5.73;;
20865;SDS011;10593;48.398;10.698;2023-04-09T03:22:27;6.23;;;5.73;;
20865;SDS011;10593;48.398;10.698;2023-04-09T03:25:00;6.00;;;5.50;;
20865;SDS011;10593;48.398;10.698;2023-04-09T03:27:25;5.90;;;5.40;;
20865;SDS011;10593;48.398;10.698;2023-04-09T03:29:54;6.37;;;5.77;;
20865;SDS011;10593;48.398;10.698;2023-04-09T03:32:20;5.60;;;5.20;;
20865;SDS011;10593;48.398;10.698;2023-04-09T03:34:46;5.10;;;4.70;;
20865;SDS011;10593;48.398;10.698;2023-04-09T03:37:11;5.97;;;5.47;;
20865;SDS011;10593;48.398;10.698;2023-04-09T03:39:37;6.10;;;5.63;;
20865;SDS011;10593;48.398;10.698;2023-04-09T03:42:03;5.33;;;4.93;;
20865;SDS011;10593;48.398;10.698;2023-04-09T03:44:28;5.63;;;5.23;;
20865;SDS011;10593;48.398;10.698;2023-04-09T03:46:54;4.70;;;4.40;;
20865;SDS011;10593;48.398;10.698;2023-04-09T03:49:20;5.00;;;4.70;;
20865;SDS011;10593;48.398;10.698;2023-04-09T03:51:45;4.80;;;4.43;;
20865;SDS011;10593;48.398;10.698;2023-04-09T03:54:11;5.97;;;5.47;;
20865;SDS011;10593;48.398;10.698;2023-04-09T03:56:37;5.40;;;4.90;;
20865;SDS011;10593;48.398;10.698;2023-04-09T03:59:02;5.90;;;5.40;;
20865;SDS011;10593;48.398;10.698;2023-04-09T04:01:31;5.70;;;5.23;;
20865;SDS011;10593;48.398;10.698;2023-04-09T04:03:56;5.43;;;5.03;;
20865;SDS011;10593;48.398;10.698;2023-04-09T04:06:22;5.63;;;5.23;;
20865;SDS011;10593;48.398;10.698;2023-04-09T04:08:48;6.20;;;5.70;;
20865;SDS011;10593;48.398;10.698;2023-04-09T04:11:13;5.40;;;5.00;;
20865;SDS011;10593;48.398;10.698;2023-04-09T04:13:39;5.70;;;5.20;;
20865;SDS011;10593;48.398;10.698;2023-04-09T04:16:05;5.77;;;5.27;;
20865;SDS011;10593;48.398;10.698;2023-04-09T04:18:33;5.80;;;5.30;;
20865;SDS011;10593;48.398;10.698;2023-04-09T04:20:59;5.53;;;5.13;;
20865;SDS011;10593;48.398;10.698;2023-04-09T04:23:25;6.37;;;5.87;;
20865;SDS011;10593;48.398;10.698;2023-04-09T04:25:51;5.87;;;5.37;;
20865;SDS011;10593;48.398;10.698;2023-04-09T04:28:20;6.67;;;6.17;;
20865;SDS011;10593;48.398;10.698;2023-04-09T04:30:46;7.37;;;6.77;;
20865;SDS011;10593;48.398;10.698;2023-04-09T04:33:12;7.93;;;7.23;;
20865;SDS011;10593;48.398;10.698;2023-04-09T04:35:37;7.97;;;7.27;;
20865;SDS011;10593;48.398;10.698;2023-04-09T04:38:03;8.07;;;7.37;;
20865;SDS011;10593;48.398;10.698;2023-04-09T04:40:29;8.00;;;7.30;;
20865;SDS011;10593;48.398;10.698;2023-04-09T04:42:54;8.40;;;7.60;;
20865;SDS011;10593;48.398;10.698;2023-04-09T04:45:20;8.30;;;7.60;;
20865;SDS011;10593;48.398;10.698;2023-04-09T04:47:46;7.87;;;7.20;;
20865;SDS011;10593;48.398;10.698;2023-04-09T04:50:11;7.57;;;6.90;;
20865;SDS011;10593;48.398;10.698;2023-04-09T04:52:37;7.97;;;7.27;;
20865;SDS011;10593;48.398;10.698;2023-04-09T04:55:04;7.73;;;7.13;;
20865;SDS011;10593;48.398;10.698;2023-04-09T04:57:31;7.00;;;6.50;;
20865;SDS011;10593;48.398;10.698;2023-04-09T04:59:56;7.70;;;7.00;;
20865;SDS011;10593;48.398;10.698;2023-04-09T05:02:22;8.07;;;7.37;;
20865;SDS011;10593;48.398;10.698;2023-04-09T05:04:47;7.43;;;6.83;;
20865;SDS011;10593;48.398;10.698;2023-04-09T05:07:13;7.63;;;6.93;;
20865;SDS011;10593;48.398;10.698;2023-04-09T05:09:39;7.70;;;7.00;;
20865;SDS011;10593;48.398;10.698;2023-04-09T05:12:06;7.70;;;7.10;;
20865;SDS011;10593;48.398;10.698;2023-04-09T05:14:33;8.13;;;7.43;;
20865;SDS011;10593;48.398;10.698;2023-04-09T05:16:59;8.37;;;7.67;;
20865;SDS011;10593;48.398;10.698;2023-04-09T05:19:24;9.17;;;8.37;;
20865;SDS011;10593;48.398;10.698;2023-04-09T05:21:50;9.00;;;8.20;;
20865;SDS011;10593;48.398;10.698;2023-04-09T05:24:15;8.87;;;8.10;;
20865;SDS011;10593;48.398;10.698;2023-04-09T05:26:41;9.87;;;9.07;;
20865;SDS011;10593;48.398;10.698;2023-04-09T05:29:07;9.80;;;8.80;;
20865;SDS011;10593;48.398;10.698;2023-04-09T05:31:33;10.53;;;9.53;;
20865;SDS011;10593;48.398;10.698;2023-04-09T05:33:59;11.53;;;10.53;;
20865;SDS011;10593;48.398;10.698;2023-04-09T05:36:25;11.87;;;10.87;;
20865;SDS011;10593;48.398;10.698;2023-04-09T05:38:51;11.00;;;10.10;;
20865;SDS011;10593;48.398;10.698;2023-04-09T05:41:16;11.13;;;10.03;;
20865;SDS011;10593;48.398;10.698;2023-04-09T05:43:42;11.50;;;10.50;;
20865;SDS011;10593;48.398;10.698;2023-04-09T05:46:08;12.27;;;11.17;;
20865;SDS011;10593;48.398;10.698;2023-04-09T05:48:34;11.70;;;10.60;;
20865;SDS011;10593;48.398;10.698;2023-04-09T05:51:00;11.70;;;10.63;;
20865;SDS011;10593;48.398;10.698;2023-04-09T05:53:26;10.80;;;9.90;;
20865;SDS011;10593;48.398;10.698;2023-04-09T05:55:53;11.47;;;10.47;;
20865;SDS011;10593;48.398;10.698;2023-04-09T05:58:19;11.63;;;10.53;;
20865;SDS011;10593;48.398;10.698;2023-04-09T06:00:45;10.90;;;9.90;;
20865;SDS011;10593;48.398;10.698;2023-04-09T06:03:11;11.53;;;10.47;;
20865;SDS011;10593;48.398;10.698;2023-04-09T06:05:36;11.70;;;10.63;;
20865;SDS011;10593;48.398;10.698;2023-04-09T06:08:02;12.40;;;11.20;;
20865;SDS011;10593;48.398;10.698;2023-04-09T06:10:30;12.43;;;11.30;;
20865;SDS011;10593;48.398;10.698;2023-04-09T06:12:56;12.33;;;11.23;;
20865;SDS011;10593;48.398;10.698;2023-04-09T06:15:22;12.57;;;11.37;;
20865;SDS011;10593;48.398;10.698;2023-04-09T06:17:47;12.43;;;11.20;;
20865;SDS011;10593;48.398;10.698;2023-04-09T06:20:13;13.10;;;11.90;;
20865;SDS011;10593;48.398;10.698;2023-04-09T06:22:39;12.23;;;11.03;;
20865;SDS011;10593;48.398;10.698;2023-04-09T06:25:05;13.50;;;12.23;;
20865;SDS011;10593;48.398;10.698;2023-04-09T06:27:31;12.07;;;11.00;;
20865;SDS011;10593;48.398;10.698;2023-04-09T06:29:56;11.77;;;10.67;;
20865;SDS011;10593;48.398;10.698;2023-04-09T06:32:22;12.53;;;11.43;;
20865;SDS011;10593;48.398;10.698;2023-04-09T06:34:48;12.17;;;11.03;;
20865;SDS011;10593;48.398;10.698;2023-04-09T06:37:13;12.73;;;11.57;;
20865;SDS011;10593;48.398;10.698;2023-04-09T06:39:39;13.70;;;12.40;;
20865;SDS011;10593;48.398;10.698;2023-04-09T06:42:05;13.47;;;12.17;;
20865;SDS011;10593;48.398;10.698;2023-04-09T06:44:32;12.43;;;11.23;;
20865;SDS011;10593;48.398;10.698;2023-04-09T06:46:58;12.53;;;11.37;;
20865;SDS011;10593;48.398;10.698;2023-04-09T06:49:24;12.50;;;11.40;;
20865;SDS011;10593;48.398;10.698;2023-04-09T06:51:50;11.43;;;10.40;;
20865;SDS011;10593;48.398;10.698;2023-04-09T06:54:17;13.10;;;11.90;;
20865;SDS011;10593;48.398;10.698;2023-04-09T06:56:44;13.20;;;12.10;;
20865;SDS011;10593;48.398;10.698;2023-04-09T06:59:10;12.50;;;11.27;;
20865;SDS011;10593;48.398;10.698;2023-04-09T07:01:36;12.63;;;11.50;;
20865;SDS011;10593;48.398;10.698;2023-04-09T07:04:02;12.27;;;11.27;;
20865;SDS011;10593;48.398;10.698;2023-04-09T07:06:28;12.73;;;11.57;;
20865;SDS011;10593;48.398;10.698;2023-04-09T07:08:54;13.60;;;12.20;;
20865;SDS011;10593;48.398;10.698;2023-04-09T07:11:20;12.43;;;11.33;;
20865;SDS011;10593;48.398;10.698;2023-04-09T07:13:45;13.20;;;12.00;;
20865;SDS011;10593;48.398;10.698;2023-04-09T07:16:11;12.20;;;11.00;;
20865;SDS011;10593;48.398;10.698;2023-04-09T07:18:37;14.10;;;12.80;;
20865;SDS011;10593;48.398;10.698;2023-04-09T07:21:02;12.83;;;11.63;;
20865;SDS011;10593;48.398;10.698;2023-04-09T07:23:28;12.97;;;11.83;;
20865;SDS011;10593;48.398;10.698;2023-04-09T07:25:53;12.60;;;11.50;;
20865;SDS011;10593;48.398;10.698;2023-04-09T07:28:19;12.37;;;11.27;;
20865;SDS011;10593;48.398;10.698;2023-04-09T07:30:45;12.87;;;11.67;;
20865;SDS011;10593;48.398;10.698;2023-04-09T07:33:11;14.07;;;12.77;;
20865;SDS011;10593;48.398;10.698;2023-04-09T07:35:36;13.00;;;11.80;;
20865;SDS011;10593;48.398;10.698;2023-04-09T07:38:02;12.17;;;11.07;;
20865;SDS011;10593;48.398;10.698;2023-04-09T07:40:28;11.93;;;10.87;;
20865;SDS011;10593;48.398;10.698;2023-04-09T07:42:53;11.93;;;10.83;;
20865;SDS011;10593;48.398;10.698;2023-04-09T07:45:19;10.80;;;9.90;;
20865;SDS011;10593;48.398;10.698;2023-04-09T07:47:45;10.70;;;9.80;;
20865;SDS011;10593;48.398;10.698;2023-04-09T07:50:11;10.80;;;9.90;;
20865;SDS011;10593;48.398;10.698;2023-04-09T07:52:37;11.33;;;10.27;;
20865;SDS011;10593;48.398;10.698;2023-04-09T07:55:03;9.77;;;8.93;;
20865;SDS011;10593;48.398;10.698;2023-04-09T07:57:32;10.03;;;9.13;;
20865;SDS011;10593;48.398;10.698;2023-04-09T07:59:58;9.53;;;8.73;;
20865;SDS011;10593;48.398;10.698;2023-04-09T08:02:23;10.20;;;9.30;;
20865;SDS011;10593;48.398;10.698;2023-04-09T08:04:49;9.73;;;8.93;;
20865;SDS011;10593;48.398;10.698;2023-04-09T08:07:15;9.47;;;8.67;;
20865;SDS011;10593;48.398;10.698;2023-04-09T08:09:41;9.30;;;8.50;;
20865;SDS011;10593;48.398;10.698;2023-04-09T08:12:06;10.17;;;9.17;;
20865;SDS011;10593;48.398;10.698;2023-04-09T08:14:32;9.83;;;8.93;;
20865;SDS011;10593;48.398;10.698;2023-04-09T08:16:58;10.00;;;9.10;;
20865;SDS011;10593;48.398;10.698;2023-04-09T08:19:24;9.23;;;8.43;;
20865;SDS011;10593;48.398;10.698;2023-04-09T08:21:49;9.47;;;8.67;;
20865;SDS011;10593;48.398;10.698;2023-04-09T08:24:16;9.20;;;8.40;;
20865;SDS011;10593;48.398;10.698;2023-04-09T08:26:42;8.20;;;7.50;;
20865;SDS011;10593;48.398;10.698;2023-04-09T08:29:09;9.87;;;8.97;;
20865;SDS011;10593;48.398;10.698;2023-04-09T08:31:37;8.63;;;7.93;;
20865;SDS011;10593;48.398;10.698;2023-04-09T08:34:03;9.63;;;8.80;;
20865;SDS011;10593;48.398;10.698;2023-04-09T08:36:29;9.73;;;8.93;;
20865;SDS011;10593;48.398;10.698;2023-04-09T08:38:56;8.87;;;8.07;;
20865;SDS011;10593;48.398;10.698;2023-04-09T08:41:24;8.80;;;8.00;;
20865;SDS011;10593;48.398;10.698;2023-04-09T08:43:55;9.33;;;8.50;;
20865;SDS011;10593;48.398;10.698;2023-04-09T08:46:22;10.03;;;9.13;;
20865;SDS011;10593;48.398;10.698;2023-04-09T08:48:49;14.83;;;13.43;;
20865;SDS011;10593;48.398;10.698;2023-04-09T08:51:16;15.07;;;13.63;;
20865;SDS011;10593;48.398;10.698;2023-04-09T08:53:48;16.97;;;15.43;;
20865;SDS011;10593;48.398;10.698;2023-04-09T08:56:20;10.97;;;9.97;;
20865;SDS011;10593;48.398;10.698;2023-04-09T08:58:46;8.97;;;8.17;;
20865;SDS011;10593;48.398;10.698;2023-04-09T09:01:19;8.37;;;7.67;;
20865;SDS011;10593;48.398;10.698;2023-04-09T09:03:52;10.37;;;9.47;;
20865;SDS011;10593;48.398;10.698;2023-04-09T09:06:28;7.70;;;7.03;;
20865;SDS011;10593;48.398;10.698;2023-04-09T09:09:06;6.80;;;6.30;;
20865;SDS011;10593;48.398;10.698;2023-04-09T09:11:46;7.87;;;7.17;;
20865;SDS011;10593;48.398;10.698;2023-04-09T09:14:15;7.30;;;6.70;;
20865;SDS011;10593;48.398;10.698;2023-04-09T09:21:56;6.47;;;5.93;;
20865;SDS011;10593;48.398;10.698;2023-04-09T09:24:24;6.90;;;6.30;;
20865;SDS011;10593;48.398;10.698;2023-04-09T09:26:50;6.37;;;5.87;;
20865;SDS011;10593;48.398;10.698;2023-04-09T09:29:18;7.50;;;6.90;;
20865;SDS011;10593;48.398;10.698;2023-04-09T09:31:48;7.07;;;6.47;;
20865;SDS011;10593;48.398;10.698;2023-04-09T09:34:16;7.27;;;6.63;;
20865;SDS011;10593;48.398;10.698;2023-04-09T09:36:44;7.70;;;7.10;;
20865;SDS011;10593;48.398;10.698;2023-04-09T09:39:11;6.37;;;5.83;;
20865;SDS011;10593;48.398;10.698;2023-04-09T09:41:39;7.57;;;6.97;;
20865;SDS011;10593;48.398;10.698;2023-04-09T09:44:06;7.37;;;6.70;;
20865;SDS011;10593;48.398;10.698;2023-04-09T09:46:38;6.87;;;6.37;;
20865;SDS011;10593;48.398;10.698;2023-04-09T09:49:05;6.17;;;5.67;;
20865;SDS011;10593;48.398;10.698;2023-04-09T09:51:32;6.50;;;5.90;;
20865;SDS011;10593;48.398;10.698;2023-04-09T09:54:03;6.83;;;6.23;;
20865;SDS011;10593;48.398;10.698;2023-04-09T09:56:36;7.13;;;6.53;;
20865;SDS011;10593;48.398;10.698;2023-04-09T09:59:09;6.97;;;6.37;;
20865;SDS011;10593;48.398;10.698;2023-04-09T10:01:48;6.40;;;5.90;;
20865;SDS011;10593;48.398;10.698;2023-04-09T10:04:28;7.83;;;7.13;;
20865;SDS011;10593;48.398;10.698;2023-04-09T10:07:00;6.77;;;6.27;;
20865;SDS011;10593;48.398;10.698;2023-04-09T10:09:29;6.93;;;6.33;;
20865;SDS011;10593;48.398;10.698;2023-04-09T10:11:56;7.73;;;7.13;;
20865;SDS011;10593;48.398;10.698;2023-04-09T10:14:24;7.40;;;6.70;;
20865;SDS011;10593;48.398;10.698;2023-04-09T10:16:52;7.17;;;6.57;;
20865;SDS011;10593;48.398;10.698;2023-04-09T10:19:18;7.93;;;7.13;;
20865;SDS011;10593;48.398;10.698;2023-04-09T10:24:18;33.90;;;20.37;;
20865;SDS011;10593;48.398;10.698;2023-04-09T10:26:45;32.27;;;18.33;;
20865;SDS011;10593;48.398;10.698;2023-04-09T10:31:51;32.90;;;21.57;;
20865;SDS011;10593;48.398;10.698;2023-04-09T10:34:19;42.20;;;27.37;;
20865;SDS011;10593;48.398;10.698;2023-04-09T10:36:54;14.20;;;11.17;;
20865;SDS011;10593;48.398;10.698;2023-04-09T10:39:25;16.30;;;12.53;;
20865;SDS011;10593;48.398;10.698;2023-04-09T10:41:53;20.43;;;15.17;;
20865;SDS011;10593;48.398;10.698;2023-04-09T10:46:52;7.70;;;7.00;;
20865;SDS011;10593;48.398;10.698;2023-04-09T10:49:19;8.00;;;7.40;;
20865;SDS011;10593;48.398;10.698;2023-04-09T10:59:39;7.63;;;7.03;;
20865;SDS011;10593;48.398;10.698;2023-04-09T11:10:29;8.13;;;7.43;;
20865;SDS011;10593;48.398;10.698;2023-04-09T11:12:58;7.20;;;6.60;;
20865;SDS011;10593;48.398;10.698;2023-04-09T11:15:24;7.73;;;7.03;;
20865;SDS011;10593;48.398;10.698;2023-04-09T11:17:50;6.90;;;6.33;;
20865;SDS011;10593;48.398;10.698;2023-04-09T11:20:16;7.47;;;6.87;;
20865;SDS011;10593;48.398;10.698;2023-04-09T11:22:46;7.87;;;7.17;;
20865;SDS011;10593;48.398;10.698;2023-04-09T11:25:18;7.73;;;7.13;;
20865;SDS011;10593;48.398;10.698;2023-04-09T11:27:45;7.23;;;6.53;;
20865;SDS011;10593;48.398;10.698;2023-04-09T11:30:11;7.53;;;6.93;;
20865;SDS011;10593;48.398;10.698;2023-04-09T11:32:37;6.60;;;6.10;;
20865;SDS011;10593;48.398;10.698;2023-04-09T11:35:03;7.40;;;6.80;;
20865;SDS011;10593;48.398;10.698;2023-04-09T11:37:36;7.50;;;6.90;;
20865;SDS011;10593;48.398;10.698;2023-04-09T11:40:02;6.40;;;5.90;;
20865;SDS011;10593;48.398;10.698;2023-04-09T11:42:31;6.60;;;6.00;;
20865;SDS011;10593;48.398;10.698;2023-04-09T11:44:57;7.40;;;6.80;;
20865;SDS011;10593;48.398;10.698;2023-04-09T11:47:24;7.17;;;6.57;;
20865;SDS011;10593;48.398;10.698;2023-04-09T11:49:51;6.83;;;6.23;;
20865;SDS011;10593;48.398;10.698;2023-04-09T11:52:17;6.20;;;5.70;;
20865;SDS011;10593;48.398;10.698;2023-04-09T11:54:49;6.70;;;6.10;;
20865;SDS011;10593;48.398;10.698;2023-04-09T11:57:15;7.30;;;6.70;;
20865;SDS011;10593;48.398;10.698;2023-04-09T11:59:41;6.90;;;6.20;;
20865;SDS011;10593;48.398;10.698;2023-04-09T12:02:07;7.63;;;6.83;;
20865;SDS011;10593;48.398;10.698;2023-04-09T12:04:33;7.50;;;6.90;;
20865;SDS011;10593;48.398;10.698;2023-04-09T12:06:59;7.30;;;6.70;;
20865;SDS011;10593;48.398;10.698;2023-04-09T12:09:25;7.30;;;6.70;;
20865;SDS011;10593;48.398;10.698;2023-04-09T12:11:50;7.23;;;6.63;;
20865;SDS011;10593;48.398;10.698;2023-04-09T12:14:17;6.80;;;6.20;;
20865;SDS011;10593;48.398;10.698;2023-04-09T12:16:49;11.13;;;9.10;;
20865;SDS011;10593;48.398;10.698;2023-04-09T12:19:16;19.63;;;11.90;;
20865;SDS011;10593;48.398;10.698;2023-04-09T12:21:53;10.67;;;8.03;;
20865;SDS011;10593;48.398;10.698;2023-04-09T12:24:23;17.37;;;11.70;;
20865;SDS011;10593;48.398;10.698;2023-04-09T12:26:50;92.13;;;34.23;;
20865;SDS011;10593;48.398;10.698;2023-04-09T12:29:17;34.70;;;15.83;;
20865;SDS011;10593;48.398;10.698;2023-04-09T12:31:45;19.20;;;10.77;;
20865;SDS011;10593;48.398;10.698;2023-04-09T12:34:11;24.33;;;13.87;;
20865;SDS011;10593;48.398;10.698;2023-04-09T12:36:38;11.43;;;8.77;;
20865;SDS011;10593;48.398;10.698;2023-04-09T12:39:08;6.80;;;6.20;;
20865;SDS011;10593;48.398;10.698;2023-04-09T12:41:34;5.97;;;5.47;;
20865;SDS011;10593;48.398;10.698;2023-04-09T12:44:00;6.23;;;5.63;;
20865;SDS011;10593;48.398;10.698;2023-04-09T12:46:26;5.80;;;5.30;;
20865;SDS011;10593;48.398;10.698;2023-04-09T12:48:52;5.47;;;4.97;;
20865;SDS011;10593;48.398;10.698;2023-04-09T12:51:18;5.77;;;5.37;;
20865;SDS011;10593;48.398;10.698;2023-04-09T12:53:44;6.00;;;5.50;;
20865;SDS011;10593;48.398;10.698;2023-04-09T12:56:10;5.70;;;5.20;;
20865;SDS011;10593;48.398;10.698;2023-04-09T12:58:39;6.57;;;6.00;;
20865;SDS011;10593;48.398;10.698;2023-04-09T13:01:05;6.23;;;5.70;;
20865;SDS011;10593;48.398;10.698;2023-04-09T13:03:31;6.53;;;6.03;;
20865;SDS011;10593;48.398;10.698;2023-04-09T13:05:57;6.20;;;5.70;;
20865;SDS011;10593;48.398;10.698;2023-04-09T13:08:22;6.37;;;5.87;;
20865;SDS011;10593;48.398;10.698;2023-04-09T13:10:48;6.27;;;5.77;;
20865;SDS011;10593;48.398;10.698;2023-04-09T13:13:13;5.90;;;5.40;;
20865;SDS011;10593;48.398;10.698;2023-04-09T13:15:40;5.77;;;5.27;;
20865;SDS011;10593;48.398;10.698;2023-04-09T13:18:10;6.60;;;6.00;;
20865;SDS011;10593;48.398;10.698;2023-04-09T13:20:37;5.23;;;4.83;;
20865;SDS011;10593;48.398;10.698;2023-04-09T13:23:03;6.57;;;5.97;;
20865;SDS011;10593;48.398;10.698;2023-04-09T13:25:30;5.80;;;5.30;;
20865;SDS011;10593;48.398;10.698;2023-04-09T13:27:55;6.40;;;5.80;;
20865;SDS011;10593;48.398;10.698;2023-04-09T13:30:21;6.10;;;5.50;;
20865;SDS011;10593;48.398;10.698;2023-04-09T13:32:47;5.10;;;4.70;;
20865;SDS011;10593;48.398;10.698;2023-04-09T13:35:13;5.53;;;5.07;;
20865;SDS011;10593;48.398;10.698;2023-04-09T13:37:38;5.33;;;4.93;;
20865;SDS011;10593;48.398;10.698;2023-04-09T13:40:04;5.40;;;4.90;;
20865;SDS011;10593;48.398;10.698;2023-04-09T13:42:35;5.00;;;4.60;;
20865;SDS011;10593;48.398;10.698;2023-04-09T13:45:04;5.00;;;4.60;;
20865;SDS011;10593;48.398;10.698;2023-04-09T13:47:30;5.23;;;4.73;;
20865;SDS011;10593;48.398;10.698;2023-04-09T13:49:56;6.17;;;5.67;;
20865;SDS011;10593;48.398;10.698;2023-04-09T13:52:22;16.23;;;11.80;;
20865;SDS011;10593;48.398;10.698;2023-04-09T13:54:48;16.13;;;11.40;;
20865;SDS011;10593;48.398;10.698;2023-04-09T13:57:14;12.10;;;8.97;;
20865;SDS011;10593;48.398;10.698;2023-04-09T13:59:41;7.53;;;6.83;;
20865;SDS011;10593;48.398;10.698;2023-04-09T14:02:07;6.67;;;6.07;;
20865;SDS011;10593;48.398;10.698;2023-04-09T14:04:33;6.67;;;6.07;;
20865;SDS011;10593;48.398;10.698;2023-04-09T14:06:59;7.10;;;6.50;;
20865;SDS011;10593;48.398;10.698;2023-04-09T14:09:24;6.43;;;5.83;;
20865;SDS011;10593;48.398;10.698;2023-04-09T14:11:50;6.10;;;5.60;;
20865;SDS011;10593;48.398;10.698;2023-04-09T14:14:18;5.60;;;5.17;;
20865;SDS011;10593;48.398;10.698;2023-04-09T14:16:43;6.00;;;5.50;;
20865;SDS011;10593;48.398;10.698;2023-04-09T14:19:10;6.53;;;5.93;;
20865;SDS011;10593;48.398;10.698;2023-04-09T14:21:36;6.23;;;5.73;;
20865;SDS011;10593;48.398;10.698;2023-04-09T14:24:02;6.57;;;6.00;;
20865;SDS011;10593;48.398;10.698;2023-04-09T14:26:28;5.77;;;5.27;;
20865;SDS011;10593;48.398;10.698;2023-04-09T14:28:54;5.77;;;5.27;;
20865;SDS011;10593;48.398;10.698;2023-04-09T14:31:19;5.97;;;5.47;;
20865;SDS011;10593;48.398;10.698;2023-04-09T14:33:46;5.27;;;4.87;;
20865;SDS011;10593;48.398;10.698;2023-04-09T14:36:12;5.17;;;4.77;;
20865;SDS011;10593;48.398;10.698;2023-04-09T14:38:38;6.23;;;5.67;;
20865;SDS011;10593;48.398;10.698;2023-04-09T14:41:03;5.50;;;5.00;;
20865;SDS011;10593;48.398;10.698;2023-04-09T14:43:30;6.20;;;5.70;;
20865;SDS011;10593;48.398;10.698;2023-04-09T14:45:56;6.77;;;6.07;;
20865;SDS011;10593;48.398;10.698;2023-04-09T14:48:22;6.27;;;5.77;;
20865;SDS011;10593;48.398;10.698;2023-04-09T14:50:47;6.17;;;5.67;;
20865;SDS011;10593;48.398;10.698;2023-04-09T14:53:15;6.07;;;5.57;;
20865;SDS011;10593;48.398;10.698;2023-04-09T14:55:41;5.93;;;5.43;;
20865;SDS011;10593;48.398;10.698;2023-04-09T14:58:07;6.00;;;5.50;;
20865;SDS011;10593;48.398;10.698;2023-04-09T15:00:33;6.43;;;5.93;;
20865;SDS011;10593;48.398;10.698;2023-04-09T15:02:59;5.83;;;5.33;;
20865;SDS011;10593;48.398;10.698;2023-04-09T15:05:25;6.33;;;5.77;;
20865;SDS011;10593;48.398;10.698;2023-04-09T15:07:51;6.33;;;5.83;;
20865;SDS011;10593;48.398;10.698;2023-04-09T15:10:18;5.87;;;5.37;;